sensor_id;sensor_type;location;lat;lon;timestamp;temperature;humidity
31991;DHT22;18508;49.386;8.370;2023-02-22T00:02:14;4.10;99.90
31991;DHT22;18508;49.386;8.370;2023-02-22T00:14:49;4.00;99.90
31991;DHT22;18508;49.386;8.370;2023-02-22T00:29:49;4.00;99.90
31991;DHT22;18508;49.386;8.370;2023-02-22T00:39:45;4.00;99.90
31991;DHT22;18508;49.386;8.370;2023-02-22T00:44:43;4.10;99.90
31991;DHT22;18508;49.386;8.370;2023-02-22T00:47:14;3.90;99.90
31991;DHT22;18508;49.386;8.370;2023-02-22T01:04:44;3.90;99.90
31991;DHT22;18508;49.386;8.370;2023-02-22T01:22:14;4.00;99.90
31991;DHT22;18508;49.386;8.370;2023-02-22T01:39:39;4.00;99.90
31991;DHT22;18508;49.386;8.370;2023-02-22T01:49:41;4.00;99.90
31991;DHT22;18508;49.386;8.370;2023-02-22T01:52:14;3.90;99.90
31991;DHT22;18508;49.386;8.370;2023-02-22T01:54:47;3.90;99.90
31991;DHT22;18508;49.386;8.370;2023-02-22T01:57:21;3.80;99.90
31991;DHT22;18508;49.386;8.370;2023-02-22T01:59:54;3.70;99.90
31991;DHT22;18508;49.386;8.370;2023-02-22T02:02:24;3.70;99.90
31991;DHT22;18508;49.386;8.370;2023-02-22T02:04:54;3.60;99.90
31991;DHT22;18508;49.386;8.370;2023-02-22T02:07:25;3.70;99.90
31991;DHT22;18508;49.386;8.370;2023-02-22T02:09:58;3.70;99.90
31991;DHT22;18508;49.386;8.370;2023-02-22T02:12:28;3.70;99.90
31991;DHT22;18508;49.386;8.370;2023-02-22T02:15:17;3.70;99.90
31991;DHT22;18508;49.386;8.370;2023-02-22T02:17:48;3.70;99.90
31991;DHT22;18508;49.386;8.370;2023-02-22T02:20:23;3.50;99.90
31991;DHT22;18508;49.386;8.370;2023-02-22T02:23:06;3.60;99.90
31991;DHT22;18508;49.386;8.370;2023-02-22T02:25:59;3.60;99.90
31991;DHT22;18508;49.386;8.370;2023-02-22T02:32:25;3.50;99.90
31991;DHT22;18508;49.386;8.370;2023-02-22T02:34:59;3.50;99.90
31991;DHT22;18508;49.386;8.370;2023-02-22T02:37:35;3.50;99.90
31991;DHT22;18508;49.386;8.370;2023-02-22T02:40:11;3.40;99.90
31991;DHT22;18508;49.386;8.370;2023-02-22T02:42:52;3.50;99.90
31991;DHT22;18508;49.386;8.370;2023-02-22T02:45:25;3.50;99.90
31991;DHT22;18508;49.386;8.370;2023-02-22T02:48:01;3.50;99.90
31991;DHT22;18508;49.386;8.370;2023-02-22T02:50:39;3.50;99.90
31991;DHT22;18508;49.386;8.370;2023-02-22T03:00:38;3.40;99.90
31991;DHT22;18508;49.386;8.370;2023-02-22T03:03:47;3.50;99.90
31991;DHT22;18508;49.386;8.370;2023-02-22T03:06:47;3.50;99.90
31991;DHT22;18508;49.386;8.370;2023-02-22T03:09:27;3.50;99.90
31991;DHT22;18508;49.386;8.370;2023-02-22T03:12:06;3.50;99.90
31991;DHT22;18508;49.386;8.370;2023-02-22T03:14:41;3.30;99.90
31991;DHT22;18508;49.386;8.370;2023-02-22T03:17:15;3.50;99.90
31991;DHT22;18508;49.386;8.370;2023-02-22T03:19:50;3.50;99.90
31991;DHT22;18508;49.386;8.370;2023-02-22T03:22:24;3.50;99.90
31991;DHT22;18508;49.386;8.370;2023-02-22T03:24:57;3.50;99.90
31991;DHT22;18508;49.386;8.370;2023-02-22T03:27:37;3.50;99.90
31991;DHT22;18508;49.386;8.370;2023-02-22T03:30:13;3.50;99.90
31991;DHT22;18508;49.386;8.370;2023-02-22T03:32:48;3.30;99.90
31991;DHT22;18508;49.386;8.370;2023-02-22T03:35:21;3.30;99.90
31991;DHT22;18508;49.386;8.370;2023-02-22T03:37:54;3.30;99.90
31991;DHT22;18508;49.386;8.370;2023-02-22T03:40:28;3.30;99.90
31991;DHT22;18508;49.386;8.370;2023-02-22T03:43:04;3.30;99.90
31991;DHT22;18508;49.386;8.370;2023-02-22T03:45:34;3.20;99.90
31991;DHT22;18508;49.386;8.370;2023-02-22T03:48:07;3.10;99.90
31991;DHT22;18508;49.386;8.370;2023-02-22T03:50:41;3.10;99.90
31991;DHT22;18508;49.386;8.370;2023-02-22T03:55:38;3.00;99.90
31991;DHT22;18508;49.386;8.370;2023-02-22T03:58:11;3.00;99.90
31991;DHT22;18508;49.386;8.370;2023-02-22T04:08:09;3.00;99.90
31991;DHT22;18508;49.386;8.370;2023-02-22T04:25:31;2.80;99.90
31991;DHT22;18508;49.386;8.370;2023-02-22T04:40:32;2.90;99.90
31991;DHT22;18508;49.386;8.370;2023-02-22T04:45:30;2.90;99.90
31991;DHT22;18508;49.386;8.370;2023-02-22T04:57:56;2.80;99.90
31991;DHT22;18508;49.386;8.370;2023-02-22T05:00:25;2.80;99.90
31991;DHT22;18508;49.386;8.370;2023-02-22T05:15:21;2.90;99.90
31991;DHT22;18508;49.386;8.370;2023-02-22T05:17:53;2.90;99.90
31991;DHT22;18508;49.386;8.370;2023-02-22T05:20:24;3.60;99.90
31991;DHT22;18508;49.386;8.370;2023-02-22T05:22:55;2.80;99.90
31991;DHT22;18508;49.386;8.370;2023-02-22T05:27:54;2.60;99.90
31991;DHT22;18508;49.386;8.370;2023-02-22T05:30:28;2.60;99.90
31991;DHT22;18508;49.386;8.370;2023-02-22T05:35:29;4.80;99.90
31991;DHT22;18508;49.386;8.370;2023-02-22T05:40:28;2.40;99.90
31991;DHT22;18508;49.386;8.370;2023-02-22T05:45:29;2.50;99.90
31991;DHT22;18508;49.386;8.370;2023-02-22T05:48:01;2.50;99.90
31991;DHT22;18508;49.386;8.370;2023-02-22T05:58:03;2.50;99.90
31991;DHT22;18508;49.386;8.370;2023-02-22T06:00:33;2.50;99.90
31991;DHT22;18508;49.386;8.370;2023-02-22T06:03:06;2.50;99.90
31991;DHT22;18508;49.386;8.370;2023-02-22T06:08:06;2.50;99.90
31991;DHT22;18508;49.386;8.370;2023-02-22T06:13:05;2.50;99.90
31991;DHT22;18508;49.386;8.370;2023-02-22T06:15:35;2.50;99.90
31991;DHT22;18508;49.386;8.370;2023-02-22T06:30:35;2.50;99.90
31991;DHT22;18508;49.386;8.370;2023-02-22T06:48:00;2.70;99.90
31991;DHT22;18508;49.386;8.370;2023-02-22T06:55:32;2.80;99.90
31991;DHT22;18508;49.386;8.370;2023-02-22T07:03:05;3.00;99.90
31991;DHT22;18508;49.386;8.370;2023-02-22T07:08:04;3.10;99.90
31991;DHT22;18508;49.386;8.370;2023-02-22T07:10:36;3.20;99.90
31991;DHT22;18508;49.386;8.370;2023-02-22T07:18:08;3.40;99.90
31991;DHT22;18508;49.386;8.370;2023-02-22T07:30:32;3.60;99.90
31991;DHT22;18508;49.386;8.370;2023-02-22T07:33:02;3.60;99.90
31991;DHT22;18508;49.386;8.370;2023-02-22T07:35:36;3.70;99.90
31991;DHT22;18508;49.386;8.370;2023-02-22T07:38:06;3.70;99.90
31991;DHT22;18508;49.386;8.370;2023-02-22T07:40:36;3.70;99.90
31991;DHT22;18508;49.386;8.370;2023-02-22T07:43:14;3.70;99.90
31991;DHT22;18508;49.386;8.370;2023-02-22T07:48:14;4.00;99.90
31991;DHT22;18508;49.386;8.370;2023-02-22T07:50:45;4.10;99.90
31991;DHT22;18508;49.386;8.370;2023-02-22T07:53:15;4.30;99.90
31991;DHT22;18508;49.386;8.370;2023-02-22T07:58:18;4.60;99.90
31991;DHT22;18508;49.386;8.370;2023-02-22T08:03:20;4.90;99.90
31991;DHT22;18508;49.386;8.370;2023-02-22T08:05:54;4.90;99.90
31991;DHT22;18508;49.386;8.370;2023-02-22T08:15:52;5.20;99.90
31991;DHT22;18508;49.386;8.370;2023-02-22T08:18:22;5.50;99.90
31991;DHT22;18508;49.386;8.370;2023-02-22T08:20:53;5.40;99.90
31991;DHT22;18508;49.386;8.370;2023-02-22T08:23:24;5.70;99.90
31991;DHT22;18508;49.386;8.370;2023-02-22T08:28:23;5.80;99.90
31991;DHT22;18508;49.386;8.370;2023-02-22T08:33:22;6.20;99.90
31991;DHT22;18508;49.386;8.370;2023-02-22T08:35:52;6.30;99.90
31991;DHT22;18508;49.386;8.370;2023-02-22T08:38:22;6.30;99.90
31991;DHT22;18508;49.386;8.370;2023-02-22T08:48:24;6.30;99.90
31991;DHT22;18508;49.386;8.370;2023-02-22T08:50:55;6.30;99.90
31991;DHT22;18508;49.386;8.370;2023-02-22T09:05:50;7.50;99.90
31991;DHT22;18508;49.386;8.370;2023-02-22T09:08:22;7.60;99.90
31991;DHT22;18508;49.386;8.370;2023-02-22T09:25:49;8.60;99.90
31991;DHT22;18508;49.386;8.370;2023-02-22T09:33:18;8.80;99.90
31991;DHT22;18508;49.386;8.370;2023-02-22T09:35:48;8.90;99.90
31991;DHT22;18508;49.386;8.370;2023-02-22T09:38:18;8.90;99.90
31991;DHT22;18508;49.386;8.370;2023-02-22T09:40:52;8.90;99.90
31991;DHT22;18508;49.386;8.370;2023-02-22T09:43:29;9.10;99.90
31991;DHT22;18508;49.386;8.370;2023-02-22T09:46:09;9.00;99.90
31991;DHT22;18508;49.386;8.370;2023-02-22T09:48:54;9.30;99.90
31991;DHT22;18508;49.386;8.370;2023-02-22T09:51:28;9.50;99.90
31991;DHT22;18508;49.386;8.370;2023-02-22T09:54:04;9.50;99.90
31991;DHT22;18508;49.386;8.370;2023-02-22T09:56:43;9.50;99.90
31991;DHT22;18508;49.386;8.370;2023-02-22T09:59:17;9.60;99.90
31991;DHT22;18508;49.386;8.370;2023-02-22T10:01:54;9.00;99.90
31991;DHT22;18508;49.386;8.370;2023-02-22T10:04:35;9.90;99.90
31991;DHT22;18508;49.386;8.370;2023-02-22T10:07:16;10.10;99.90
31991;DHT22;18508;49.386;8.370;2023-02-22T10:09:47;10.40;99.90
31991;DHT22;18508;49.386;8.370;2023-02-22T10:12:27;10.40;99.90
31991;DHT22;18508;49.386;8.370;2023-02-22T10:15:29;10.60;99.90
31991;DHT22;18508;49.386;8.370;2023-02-22T10:18:02;10.80;99.90
31991;DHT22;18508;49.386;8.370;2023-02-22T10:20:41;10.80;99.90
31991;DHT22;18508;49.386;8.370;2023-02-22T10:23:21;11.10;99.90
31991;DHT22;18508;49.386;8.370;2023-02-22T10:26:00;11.00;99.90
31991;DHT22;18508;49.386;8.370;2023-02-22T10:28:51;11.10;99.90
31991;DHT22;18508;49.386;8.370;2023-02-22T10:31:29;11.40;99.90
31991;DHT22;18508;49.386;8.370;2023-02-22T10:34:04;11.40;99.90
31991;DHT22;18508;49.386;8.370;2023-02-22T10:39:15;11.70;99.90
31991;DHT22;18508;49.386;8.370;2023-02-22T10:41:51;11.90;99.90
31991;DHT22;18508;49.386;8.370;2023-02-22T10:46:52;12.00;99.90
31991;DHT22;18508;49.386;8.370;2023-02-22T10:49:22;12.20;99.90
31991;DHT22;18508;49.386;8.370;2023-02-22T10:52:00;12.30;99.90
31991;DHT22;18508;49.386;8.370;2023-02-22T10:54:32;12.00;99.90
31991;DHT22;18508;49.386;8.370;2023-02-22T10:57:05;12.10;99.90
31991;DHT22;18508;49.386;8.370;2023-02-22T10:59:40;12.40;99.90
31991;DHT22;18508;49.386;8.370;2023-02-22T11:02:19;12.50;99.90
31991;DHT22;18508;49.386;8.370;2023-02-22T11:04:50;12.60;99.90
31991;DHT22;18508;49.386;8.370;2023-02-22T11:07:22;12.80;99.90
31991;DHT22;18508;49.386;8.370;2023-02-22T11:12:31;13.00;99.90
31991;DHT22;18508;49.386;8.370;2023-02-22T11:20:18;13.30;99.90
31991;DHT22;18508;49.386;8.370;2023-02-22T11:22:52;13.30;99.90
31991;DHT22;18508;49.386;8.370;2023-02-22T11:25:25;13.10;99.90
31991;DHT22;18508;49.386;8.370;2023-02-22T11:30:30;13.30;99.90
31991;DHT22;18508;49.386;8.370;2023-02-22T11:33:17;13.40;99.90
31991;DHT22;18508;49.386;8.370;2023-02-22T11:35:53;13.40;99.90
31991;DHT22;18508;49.386;8.370;2023-02-22T11:41:07;13.70;99.90
31991;DHT22;18508;49.386;8.370;2023-02-22T11:46:11;14.00;99.90
31991;DHT22;18508;49.386;8.370;2023-02-22T11:48:55;13.90;99.90
31991;DHT22;18508;49.386;8.370;2023-02-22T11:51:37;13.60;99.90
31991;DHT22;18508;49.386;8.370;2023-02-22T11:54:18;13.70;99.90
31991;DHT22;18508;49.386;8.370;2023-02-22T11:57:10;13.50;99.90
31991;DHT22;18508;49.386;8.370;2023-02-22T11:59:46;13.90;99.90
31991;DHT22;18508;49.386;8.370;2023-02-22T12:02:37;14.00;99.90
31991;DHT22;18508;49.386;8.370;2023-02-22T12:05:39;14.30;99.90
31991;DHT22;18508;49.386;8.370;2023-02-22T12:08:22;14.20;99.90
31991;DHT22;18508;49.386;8.370;2023-02-22T12:11:01;14.20;99.90
31991;DHT22;18508;49.386;8.370;2023-02-22T12:13:46;14.40;99.90
31991;DHT22;18508;49.386;8.370;2023-02-22T12:16:27;14.40;99.90
31991;DHT22;18508;49.386;8.370;2023-02-22T12:19:17;14.60;99.90
31991;DHT22;18508;49.386;8.370;2023-02-22T12:21:55;14.80;99.90
31991;DHT22;18508;49.386;8.370;2023-02-22T12:24:35;14.70;99.90
31991;DHT22;18508;49.386;8.370;2023-02-22T12:27:08;14.70;99.90
31991;DHT22;18508;49.386;8.370;2023-02-22T12:29:41;14.90;99.90
31991;DHT22;18508;49.386;8.370;2023-02-22T12:32:13;15.00;99.90
31991;DHT22;18508;49.386;8.370;2023-02-22T12:34:49;14.90;99.90
31991;DHT22;18508;49.386;8.370;2023-02-22T12:37:25;14.70;99.90
31991;DHT22;18508;49.386;8.370;2023-02-22T12:39:59;15.00;99.90
31991;DHT22;18508;49.386;8.370;2023-02-22T12:42:46;14.90;99.90
31991;DHT22;18508;49.386;8.370;2023-02-22T12:45:26;15.10;99.90
31991;DHT22;18508;49.386;8.370;2023-02-22T12:48:08;15.30;99.90
31991;DHT22;18508;49.386;8.370;2023-02-22T12:50:42;15.40;99.90
31991;DHT22;18508;49.386;8.370;2023-02-22T12:53:17;15.60;99.90
31991;DHT22;18508;49.386;8.370;2023-02-22T12:55:54;15.80;99.90
31991;DHT22;18508;49.386;8.370;2023-02-22T12:58:29;15.80;99.90
31991;DHT22;18508;49.386;8.370;2023-02-22T13:01:01;15.70;99.90
31991;DHT22;18508;49.386;8.370;2023-02-22T13:03:35;15.90;99.90
31991;DHT22;18508;49.386;8.370;2023-02-22T13:06:17;15.80;99.90
31991;DHT22;18508;49.386;8.370;2023-02-22T13:08:57;15.60;99.90
31991;DHT22;18508;49.386;8.370;2023-02-22T13:11:34;15.80;99.90
31991;DHT22;18508;49.386;8.370;2023-02-22T13:14:12;15.80;99.90
31991;DHT22;18508;49.386;8.370;2023-02-22T13:16:49;15.70;99.90
31991;DHT22;18508;49.386;8.370;2023-02-22T13:19:37;16.10;99.90
31991;DHT22;18508;49.386;8.370;2023-02-22T13:22:14;15.80;99.90
31991;DHT22;18508;49.386;8.370;2023-02-22T13:24:57;15.90;99.90
31991;DHT22;18508;49.386;8.370;2023-02-22T13:27:34;15.80;99.90
31991;DHT22;18508;49.386;8.370;2023-02-22T13:30:12;15.70;99.90
31991;DHT22;18508;49.386;8.370;2023-02-22T13:32:59;16.00;99.90
31991;DHT22;18508;49.386;8.370;2023-02-22T13:35:48;16.00;99.90
31991;DHT22;18508;49.386;8.370;2023-02-22T13:38:35;16.10;99.90
31991;DHT22;18508;49.386;8.370;2023-02-22T13:41:53;16.30;99.90
31991;DHT22;18508;49.386;8.370;2023-02-22T13:47:58;16.40;99.90
31991;DHT22;18508;49.386;8.370;2023-02-22T13:50:58;16.70;99.90
31991;DHT22;18508;49.386;8.370;2023-02-22T13:53:40;16.40;99.90
31991;DHT22;18508;49.386;8.370;2023-02-22T13:56:13;16.00;99.90
31991;DHT22;18508;49.386;8.370;2023-02-22T14:01:35;16.20;99.90
31991;DHT22;18508;49.386;8.370;2023-02-22T14:10:45;15.60;99.90
31991;DHT22;18508;49.386;8.370;2023-02-22T14:13:18;15.80;99.90
31991;DHT22;18508;49.386;8.370;2023-02-22T14:16:18;15.90;99.90
31991;DHT22;18508;49.386;8.370;2023-02-22T14:18:48;15.80;99.90
31991;DHT22;18508;49.386;8.370;2023-02-22T14:21:21;16.00;99.90
31991;DHT22;18508;49.386;8.370;2023-02-22T14:23:53;16.00;99.90
31991;DHT22;18508;49.386;8.370;2023-02-22T14:26:26;16.00;99.90
31991;DHT22;18508;49.386;8.370;2023-02-22T14:28:57;15.70;99.90
31991;DHT22;18508;49.386;8.370;2023-02-22T14:31:57;15.70;99.90
31991;DHT22;18508;49.386;8.370;2023-02-22T14:34:42;15.70;99.90
31991;DHT22;18508;49.386;8.370;2023-02-22T14:37:16;15.60;99.90
31991;DHT22;18508;49.386;8.370;2023-02-22T14:39:46;15.50;99.90
31991;DHT22;18508;49.386;8.370;2023-02-22T14:42:20;15.70;99.90
31991;DHT22;18508;49.386;8.370;2023-02-22T14:44:51;15.60;99.90
31991;DHT22;18508;49.386;8.370;2023-02-22T14:47:24;15.50;99.90
31991;DHT22;18508;49.386;8.370;2023-02-22T14:50:03;15.60;99.90
31991;DHT22;18508;49.386;8.370;2023-02-22T14:52:35;15.70;99.90
31991;DHT22;18508;49.386;8.370;2023-02-22T14:55:15;15.50;99.90
31991;DHT22;18508;49.386;8.370;2023-02-22T14:57:53;15.60;99.90
31991;DHT22;18508;49.386;8.370;2023-02-22T15:00:28;15.50;99.90
31991;DHT22;18508;49.386;8.370;2023-02-22T15:05:36;15.60;99.90
31991;DHT22;18508;49.386;8.370;2023-02-22T15:08:08;15.70;99.90
31991;DHT22;18508;49.386;8.370;2023-02-22T15:10:42;15.00;99.90
31991;DHT22;18508;49.386;8.370;2023-02-22T15:13:17;16.00;99.90
31991;DHT22;18508;49.386;8.370;2023-02-22T15:15:55;15.70;99.90
31991;DHT22;18508;49.386;8.370;2023-02-22T15:18:32;15.50;99.90
31991;DHT22;18508;49.386;8.370;2023-02-22T15:21:06;15.60;99.90
31991;DHT22;18508;49.386;8.370;2023-02-22T15:26:21;15.60;99.90
31991;DHT22;18508;49.386;8.370;2023-02-22T15:28:53;15.50;99.90
31991;DHT22;18508;49.386;8.370;2023-02-22T15:31:29;15.60;99.90
31991;DHT22;18508;49.386;8.370;2023-02-22T15:34:09;15.50;99.90
31991;DHT22;18508;49.386;8.370;2023-02-22T15:39:17;15.40;99.90
31991;DHT22;18508;49.386;8.370;2023-02-22T15:42:01;15.40;99.90
31991;DHT22;18508;49.386;8.370;2023-02-22T15:44:35;15.30;99.90
31991;DHT22;18508;49.386;8.370;2023-02-22T15:47:08;15.20;99.90
31991;DHT22;18508;49.386;8.370;2023-02-22T15:49:41;15.20;99.90
31991;DHT22;18508;49.386;8.370;2023-02-22T15:52:17;15.10;99.90
31991;DHT22;18508;49.386;8.370;2023-02-22T15:54:50;15.10;99.90
31991;DHT22;18508;49.386;8.370;2023-02-22T15:57:34;15.10;99.90
31991;DHT22;18508;49.386;8.370;2023-02-22T16:00:18;15.10;99.90
31991;DHT22;18508;49.386;8.370;2023-02-22T16:02:48;15.50;99.90
31991;DHT22;18508;49.386;8.370;2023-02-22T16:05:19;16.20;99.90
31991;DHT22;18508;49.386;8.370;2023-02-22T16:07:49;14.80;99.90
31991;DHT22;18508;49.386;8.370;2023-02-22T16:10:26;14.70;99.90
31991;DHT22;18508;49.386;8.370;2023-02-22T16:13:09;14.70;99.90
31991;DHT22;18508;49.386;8.370;2023-02-22T16:15:59;14.60;99.90
31991;DHT22;18508;49.386;8.370;2023-02-22T16:18:31;14.30;99.90
31991;DHT22;18508;49.386;8.370;2023-02-22T16:21:04;14.10;99.90
31991;DHT22;18508;49.386;8.370;2023-02-22T16:23:43;14.10;99.90
31991;DHT22;18508;49.386;8.370;2023-02-22T16:26:21;14.00;99.90
31991;DHT22;18508;49.386;8.370;2023-02-22T16:28:52;16.60;95.10
31991;DHT22;18508;49.386;8.370;2023-02-22T16:31:25;13.80;10.70
31991;DHT22;18508;49.386;8.370;2023-02-22T16:36:38;13.60;1.00
31991;DHT22;18508;49.386;8.370;2023-02-22T16:51:41;13.10;1.00
31991;DHT22;18508;49.386;8.370;2023-02-22T16:54:12;13.00;1.00
31991;DHT22;18508;49.386;8.370;2023-02-22T16:59:12;12.70;1.00
31991;DHT22;18508;49.386;8.370;2023-02-22T17:01:41;12.70;1.00
31991;DHT22;18508;49.386;8.370;2023-02-22T17:04:14;12.70;1.00
31991;DHT22;18508;49.386;8.370;2023-02-22T17:06:45;12.60;1.00
31991;DHT22;18508;49.386;8.370;2023-02-22T17:11:43;12.40;1.00
31991;DHT22;18508;49.386;8.370;2023-02-22T17:14:16;12.30;1.00
31991;DHT22;18508;49.386;8.370;2023-02-22T17:19:22;12.20;5.30
31991;DHT22;18508;49.386;8.370;2023-02-22T17:21:57;12.20;17.80
31991;DHT22;18508;49.386;8.370;2023-02-22T17:36:57;11.90;99.90
31991;DHT22;18508;49.386;8.370;2023-02-22T18:44:16;10.80;99.90
31991;DHT22;18508;49.386;8.370;2023-02-22T18:51:45;10.70;99.90
31991;DHT22;18508;49.386;8.370;2023-02-22T18:59:11;10.60;99.90
31991;DHT22;18508;49.386;8.370;2023-02-22T19:01:43;10.50;99.90
31991;DHT22;18508;49.386;8.370;2023-02-22T19:04:16;10.50;99.90
31991;DHT22;18508;49.386;8.370;2023-02-22T19:14:17;10.30;99.90
31991;DHT22;18508;49.386;8.370;2023-02-22T19:16:48;10.30;99.90
31991;DHT22;18508;49.386;8.370;2023-02-22T19:19:17;10.30;99.90
31991;DHT22;18508;49.386;8.370;2023-02-22T19:32:00;10.20;99.90
31991;DHT22;18508;49.386;8.370;2023-02-22T19:49:35;9.90;99.90
31991;DHT22;18508;49.386;8.370;2023-02-22T20:02:09;9.80;99.90
31991;DHT22;18508;49.386;8.370;2023-02-22T20:17:03;10.10;99.90
31991;DHT22;18508;49.386;8.370;2023-02-22T20:32:01;9.80;99.90
31991;DHT22;18508;49.386;8.370;2023-02-22T20:37:03;9.80;99.90
31991;DHT22;18508;49.386;8.370;2023-02-22T20:54:29;9.90;99.90
31991;DHT22;18508;49.386;8.370;2023-02-22T21:09:33;10.10;99.90
31991;DHT22;18508;49.386;8.370;2023-02-22T21:12:05;10.10;99.90
31991;DHT22;18508;49.386;8.370;2023-02-22T21:14:42;10.10;99.90
31991;DHT22;18508;49.386;8.370;2023-02-22T21:24:44;10.20;99.90
31991;DHT22;18508;49.386;8.370;2023-02-22T21:34:48;10.30;99.90
31991;DHT22;18508;49.386;8.370;2023-02-22T21:39:52;10.40;99.90
31991;DHT22;18508;49.386;8.370;2023-02-22T21:54:52;10.50;99.90
31991;DHT22;18508;49.386;8.370;2023-02-22T22:09:49;10.50;99.90
31991;DHT22;18508;49.386;8.370;2023-02-22T22:12:23;10.50;99.90
31991;DHT22;18508;49.386;8.370;2023-02-22T22:15:06;10.60;99.90
31991;DHT22;18508;49.386;8.370;2023-02-22T22:20:03;10.50;99.90
31991;DHT22;18508;49.386;8.370;2023-02-22T22:27:33;10.50;99.90
31991;DHT22;18508;49.386;8.370;2023-02-22T22:30:06;10.90;99.90
31991;DHT22;18508;49.386;8.370;2023-02-22T22:35:09;12.20;99.90
31991;DHT22;18508;49.386;8.370;2023-02-22T22:37:41;10.40;99.90
31991;DHT22;18508;49.386;8.370;2023-02-22T22:42:46;10.40;99.90
31991;DHT22;18508;49.386;8.370;2023-02-22T22:52:53;10.40;99.90
31991;DHT22;18508;49.386;8.370;2023-02-22T22:57:53;10.30;99.90
31991;DHT22;18508;49.386;8.370;2023-02-22T23:13:06;10.30;99.90
31991;DHT22;18508;49.386;8.370;2023-02-22T23:15:40;10.30;99.90
31991;DHT22;18508;49.386;8.370;2023-02-22T23:18:09;10.30;99.90
31991;DHT22;18508;49.386;8.370;2023-02-22T23:23:07;10.40;99.90
31991;DHT22;18508;49.386;8.370;2023-02-22T23:28:20;10.30;99.90
31991;DHT22;18508;49.386;8.370;2023-02-22T23:33:22;11.20;99.90
31991;DHT22;18508;49.386;8.370;2023-02-22T23:38:22;10.20;99.90
31991;DHT22;18508;49.386;8.370;2023-02-22T23:43:26;10.30;99.90
31991;DHT22;18508;49.386;8.370;2023-02-22T23:46:02;10.70;99.90
31991;DHT22;18508;49.386;8.370;2023-02-22T23:48:41;10.30;99.90
31991;DHT22;18508;49.386;8.370;2023-02-22T23:51:14;10.30;99.90
31991;DHT22;18508;49.386;8.370;2023-02-22T23:53:46;10.30;99.90
31991;DHT22;18508;49.386;8.370;2023-02-22T23:56:17;12.20;99.90
31991;DHT22;18508;49.386;8.370;2023-02-22T23:58:49;10.30;99.90
